Time;durP1;ratioP1;P1;durP2;ratioP2;P2;SDS_P1;SDS_P2;PMS_P1;PMS_P2;Temp;Humidity;BMP_temperature;BMP_pressure;BME280_temperature;BME280_humidity;BME280_pressure;Samples;Min_cycle;Max_cycle;Signal;HPM_P1;HPM_P2
2024/04/13 00:02:13;;;;;;;10.77;4.43;;;10.50;99.90;;;11.02;78.38;97914.00;2363764;56;26061;-76
2024/04/13 00:04:39;;;;;;;15.93;4.60;;;10.60;99.90;;;11.13;78.76;97919.00;2362912;56;26169;-77
2024/04/13 00:07:06;;;;;;;9.80;3.73;;;10.70;99.90;;;11.32;80.05;97915.00;2363448;56;26133;-76
2024/04/13 00:09:32;;;;;;;6.43;3.80;;;10.80;99.90;;;11.32;78.98;97917.00;2363488;56;26113;-75
2024/04/13 00:11:59;;;;;;;7.93;4.00;;;10.70;99.90;;;11.20;77.25;97909.00;2363521;56;26037;-77
2024/04/13 00:14:26;;;;;;;12.47;4.53;;;10.70;99.90;;;11.10;78.60;97909.00;2363308;56;26061;-75
2024/04/13 00:16:52;;;;;;;9.80;3.73;;;10.70;99.90;;;11.19;81.01;97907.00;2363709;56;26475;-76
2024/04/13 00:19:19;;;;;;;7.27;3.77;;;11.10;99.90;;;11.66;82.66;97906.00;2363635;56;26839;-77
2024/04/13 00:21:45;;;;;;;11.07;4.43;;;11.40;99.90;;;11.85;82.46;97904.00;2360477;56;27036;-78
2024/04/13 00:24:12;;;;;;;6.77;4.13;;;11.60;99.90;;;11.92;82.12;97897.00;2360050;56;26188;-75
2024/04/13 00:26:39;;;;;;;7.47;4.03;;;11.60;99.90;;;12.04;79.80;97900.00;2363347;56;26603;-77
2024/04/13 00:29:05;;;;;;;9.33;4.33;;;11.40;99.90;;;11.84;75.69;97899.00;2363447;56;26272;-78
2024/04/13 00:31:33;;;;;;;9.43;3.90;;;11.10;99.90;;;11.62;74.30;97908.00;2363495;56;26102;-77
2024/04/13 00:34:01;;;;;;;7.80;4.23;;;10.80;99.90;;;11.36;75.92;97903.00;2364055;56;26623;-76
2024/04/13 00:36:28;;;;;;;7.77;3.63;;;10.70;99.90;;;11.23;77.43;97900.00;2360407;56;26204;-78
2024/04/13 00:38:55;;;;;;;6.83;3.90;;;10.80;99.90;;;11.38;78.74;97906.00;2360362;56;26161;-76
2024/04/13 00:41:21;;;;;;;7.30;3.70;;;10.80;99.90;;;11.35;76.71;97896.00;2360255;56;26203;-74
2024/04/13 00:43:48;;;;;;;8.33;3.70;;;10.60;99.90;;;11.05;75.93;97893.00;2360535;56;27257;-78
2024/04/13 00:46:23;;;;;;;5.47;3.30;;;10.50;99.90;;;10.96;75.46;97883.00;2360397;56;26625;-75
2024/04/13 00:48:53;;;;;;;9.90;4.03;;;10.40;99.90;;;10.88;76.64;97883.00;2360121;56;26741;-77
2024/04/13 00:51:23;;;;;;;8.33;4.30;;;10.40;99.90;;;10.99;76.55;97891.00;2363739;56;26070;-75
2024/04/13 00:53:50;;;;;;;7.37;3.90;;;10.40;99.90;;;10.91;77.46;97884.00;2364007;56;26136;-77
2024/04/13 00:56:18;;;;;;;8.87;4.60;;;10.40;99.90;;;10.70;79.36;97888.00;2364061;56;26582;-75
2024/04/13 00:58:45;;;;;;;7.53;4.00;;;10.30;99.90;;;10.83;78.11;97887.00;2363417;56;26167;-76
2024/04/13 01:01:16;;;;;;;7.67;3.90;;;10.20;99.90;;;10.60;77.20;97889.00;2363631;56;26144;-78
2024/04/13 01:03:44;;;;;;;5.57;3.03;;;10.00;99.90;;;10.44;77.31;97894.00;2363796;56;26105;-77
2024/04/13 01:06:11;;;;;;;10.07;3.87;;;10.00;99.90;;;10.45;78.13;97887.00;2363644;56;26061;-77
2024/04/13 01:08:38;;;;;;;9.43;3.67;;;10.00;99.90;;;10.48;79.11;97889.00;2363508;56;26100;-74
2024/04/13 01:11:04;;;;;;;7.10;3.60;;;9.90;99.90;;;10.57;77.10;97882.00;2363987;56;26046;-76
2024/04/13 01:13:31;;;;;;;6.43;3.30;;;9.80;99.90;;;10.24;76.23;97879.00;2363899;56;26089;-75
2024/04/13 01:15:58;;;;;;;7.93;3.43;;;9.60;99.90;;;10.16;76.66;97878.00;2363619;56;26070;-75
2024/04/13 01:18:25;;;;;;;7.87;3.13;;;9.50;99.90;;;10.07;77.12;97884.00;2362634;56;26200;-75
2024/04/13 01:20:54;;;;;;;7.53;3.77;;;9.40;99.90;;;9.99;77.12;97884.00;2360291;56;26678;-77
2024/04/13 01:23:23;;;;;;;4.80;2.93;;;9.40;99.90;;;9.93;77.73;97875.00;2360256;56;26259;-77
2024/04/13 01:25:50;;;;;;;6.57;3.23;;;9.30;99.90;;;9.82;77.52;97875.00;2363824;56;26546;-77
2024/04/13 01:28:17;;;;;;;7.73;3.40;;;9.20;99.90;;;9.79;78.07;97871.00;2363698;56;26617;-75
2024/04/13 01:30:44;;;;;;;5.57;3.43;;;9.20;99.90;;;9.78;77.47;97875.00;2363109;56;26590;-75
2024/04/13 01:33:11;;;;;;;6.47;3.80;;;9.20;99.90;;;9.69;77.10;97881.00;2363474;56;26594;-74
2024/04/13 01:35:38;;;;;;;6.63;3.40;;;9.20;99.90;;;9.60;78.59;97877.00;2363896;56;26105;-77
2024/04/13 01:38:05;;;;;;;5.30;3.17;;;9.30;99.90;;;9.76;78.55;97885.00;2363980;56;26522;-74
2024/04/13 01:40:31;;;;;;;5.53;2.97;;;9.30;99.90;;;9.79;77.60;97874.00;2364151;56;26120;-77
2024/04/13 01:42:58;;;;;;;7.17;3.33;;;9.30;99.90;;;9.67;77.80;97870.00;2362200;56;26140;-74
2024/04/13 01:45:25;;;;;;;6.23;3.13;;;9.20;99.90;;;9.62;78.65;97873.00;2360160;56;26536;-74
2024/04/13 01:47:52;;;;;;;6.77;3.20;;;9.30;99.90;;;9.73;79.77;97870.00;2360325;56;26219;-76
2024/04/13 01:50:18;;;;;;;5.00;3.00;;;9.40;99.90;;;9.83;78.42;97872.00;2360169;56;26140;-76
2024/04/13 01:52:45;;;;;;;8.23;3.37;;;9.30;99.90;;;9.83;78.10;97867.00;2359877;56;26117;-74
2024/04/13 01:55:12;;;;;;;4.47;3.07;;;9.20;99.90;;;9.76;76.82;97863.00;2360443;56;26212;-76
2024/04/13 01:57:38;;;;;;;5.17;3.20;;;9.00;99.90;;;9.53;77.50;97864.00;2360316;56;26140;-75
2024/04/13 02:00:07;;;;;;;6.07;3.10;;;9.00;99.90;;;9.41;78.63;97866.00;2359864;56;26641;-77
2024/04/13 02:02:33;;;;;;;5.73;3.00;;;8.90;99.90;;;9.25;78.83;97864.00;2363732;56;26085;-75
2024/04/13 02:05:00;;;;;;;5.53;3.27;;;8.90;99.90;;;9.28;81.26;97866.00;2363973;56;26157;-76
2024/04/13 02:07:29;;;;;;;6.13;3.07;;;9.00;99.90;;;9.54;80.66;97865.00;2360849;56;26200;-76
2024/04/13 02:09:55;;;;;;;5.37;3.17;;;9.00;99.90;;;9.52;79.33;97867.00;2360048;56;26175;-77
2024/04/13 02:12:22;;;;;;;4.97;3.07;;;9.00;99.90;;;9.41;79.37;97859.00;2359730;56;26125;-75
2024/04/13 02:14:48;;;;;;;9.60;3.80;;;8.90;99.90;;;9.33;80.32;97864.00;2360204;56;26219;-75
2024/04/13 02:17:15;;;;;;;7.20;3.80;;;9.00;99.90;;;9.41;80.64;97865.00;2360190;56;26144;-74
2024/04/13 02:19:41;;;;;;;7.03;3.93;;;9.30;99.90;;;9.66;84.46;97864.00;2360166;56;26215;-74
2024/04/13 02:22:08;;;;;;;5.40;3.23;;;9.50;99.90;;;9.87;80.66;97866.00;2360444;56;26772;-76
2024/04/13 02:24:34;;;;;;;4.47;2.87;;;9.30;99.90;;;9.66;77.93;97861.00;2360435;56;26392;-74
2024/04/13 02:27:02;;;;;;;6.30;3.03;;;9.00;99.90;;;9.55;77.00;97867.00;2360005;56;26156;-77
2024/04/13 02:29:29;;;;;;;5.50;3.03;;;8.80;99.90;;;9.32;76.55;97861.00;2359889;56;26168;-74
2024/04/13 02:31:55;;;;;;;6.37;2.70;;;8.70;99.90;;;9.11;77.97;97868.00;2360628;56;26144;-74
2024/04/13 02:34:22;;;;;;;4.47;2.60;;;8.60;99.90;;;9.11;76.96;97860.00;2360090;56;26177;-75
2024/04/13 02:36:48;;;;;;;5.63;3.13;;;8.50;99.90;;;9.01;76.98;97852.00;2360006;56;26192;-74
2024/04/13 02:39:18;;;;;;;5.80;3.10;;;8.50;99.90;;;8.91;77.59;97856.00;2360206;56;26117;-75
2024/04/13 02:41:44;;;;;;;5.30;3.13;;;8.60;99.90;;;8.98;78.55;97855.00;2359988;56;27242;-74
2024/04/13 02:44:11;;;;;;;6.00;2.97;;;8.60;99.90;;;9.02;78.91;97850.00;2359796;56;26133;-75
2024/04/13 02:46:37;;;;;;;7.37;3.13;;;8.70;99.90;;;9.19;79.78;97854.00;2359436;56;26822;-74
2024/04/13 02:49:04;;;;;;;5.03;2.73;;;8.70;99.90;;;9.08;76.65;97857.00;2360315;56;26720;-76
2024/04/13 02:51:31;;;;;;;4.73;2.93;;;8.50;99.90;;;8.98;76.15;97855.00;2360007;56;26208;-74
2024/04/13 02:53:57;;;;;;;4.97;3.03;;;8.40;99.90;;;8.85;77.10;97855.00;2359768;56;26900;-77
2024/04/13 02:56:24;;;;;;;7.30;3.13;;;8.40;99.90;;;8.98;77.28;97855.00;2359645;56;26530;-77
2024/04/13 02:58:50;;;;;;;5.73;2.63;;;8.20;99.90;;;8.65;77.06;97854.00;2360025;56;26133;-75
2024/04/13 03:01:18;;;;;;;5.17;2.60;;;8.10;99.90;;;8.54;77.46;97858.00;2359985;56;26188;-76
2024/04/13 03:03:45;;;;;;;8.27;3.37;;;8.10;99.90;;;8.59;77.36;97856.00;2359977;56;26145;-75
2024/04/13 03:06:13;;;;;;;5.87;3.43;;;8.20;99.90;;;8.60;78.63;97855.00;2359470;56;26412;-77
2024/04/13 03:08:41;;;;;;;4.43;3.00;;;8.40;99.90;;;8.78;82.71;97857.00;2359674;56;26247;-75
2024/04/13 03:11:11;;;;;;;5.33;3.30;;;8.80;99.90;;;9.24;84.50;97852.00;2359524;56;26443;-76
2024/04/13 03:13:38;;;;;;;6.20;3.40;;;8.90;99.90;;;9.35;80.64;97859.00;2360071;56;26220;-74
2024/04/13 03:16:11;;;;;;;6.17;3.00;;;8.90;99.90;;;9.33;78.04;97853.00;2359985;56;26654;-74
2024/04/13 03:18:40;;;;;;;7.77;2.80;;;8.50;99.90;;;8.99;78.15;97862.00;2360410;56;26409;-75
2024/04/13 03:21:07;;;;;;;5.83;3.03;;;8.50;99.90;;;8.99;78.25;97868.00;2363629;56;26751;-76
2024/04/13 03:23:36;;;;;;;5.27;2.70;;;8.40;99.90;;;8.84;78.74;97865.00;2363654;56;26140;-77
2024/04/13 03:26:03;;;;;;;7.80;2.97;;;8.30;99.90;;;8.78;79.09;97867.00;2364167;56;26184;-75
2024/04/13 03:28:34;;;;;;;8.93;3.00;;;8.30;99.90;;;8.73;78.98;97871.00;2363936;56;26094;-76
2024/04/13 03:31:02;;;;;;;5.70;3.07;;;8.30;99.90;;;8.59;79.19;97867.00;2361935;56;26108;-76
2024/04/13 03:33:28;;;;;;;5.13;2.93;;;8.40;99.90;;;8.73;79.80;97863.00;2360023;56;26135;-76
2024/04/13 03:36:01;;;;;;;5.27;2.53;;;8.30;99.90;;;8.75;78.81;97855.00;2363598;56;26608;-76
2024/04/13 03:38:27;;;;;;;9.07;3.40;;;8.30;99.90;;;8.64;77.22;97861.00;2364051;56;26114;-76
2024/04/13 03:41:07;;;;;;;4.83;2.83;;;8.30;99.90;;;8.65;79.70;97858.00;2363898;56;26224;-75
2024/04/13 03:43:36;;;;;;;4.23;2.57;;;8.30;99.90;;;8.70;79.06;97863.00;2363689;56;26688;-75
2024/04/13 03:46:04;;;;;;;6.87;3.37;;;8.30;99.90;;;8.79;77.79;97875.00;2360256;56;26192;-76
2024/04/13 03:48:31;;;;;;;6.63;3.07;;;8.10;99.90;;;8.65;76.70;97870.00;2360128;56;26632;-75
2024/04/13 03:51:02;;;;;;;7.70;2.90;;;8.00;99.90;;;8.40;77.22;97864.00;2360273;56;26596;-74
2024/04/13 03:53:29;;;;;;;5.47;2.83;;;7.90;99.90;;;8.32;76.24;97861.00;2359860;56;26180;-77
2024/04/13 03:55:56;;;;;;;6.33;3.00;;;7.80;99.90;;;8.22;76.40;97865.00;2360063;56;26640;-76
2024/04/13 03:58:22;;;;;;;5.10;2.90;;;7.80;99.90;;;8.14;77.08;97862.00;2360120;56;26153;-76
2024/04/13 04:00:49;;;;;;;6.90;3.23;;;7.60;99.90;;;7.98;75.77;97864.00;2360266;56;26156;-75
2024/04/13 04:03:16;;;;;;;5.87;2.80;;;7.50;99.90;;;7.95;78.73;97864.00;2363584;56;26538;-73
2024/04/13 04:05:43;;;;;;;4.00;2.63;;;7.60;99.90;;;7.99;79.25;97868.00;2363316;56;26188;-76
2024/04/13 04:08:09;;;;;;;6.10;2.97;;;7.60;99.90;;;8.00;77.11;97872.00;2363131;56;26116;-77
2024/04/13 04:10:36;;;;;;;5.60;2.47;;;7.60;99.90;;;8.00;76.81;97872.00;2363847;56;26442;-74
2024/04/13 04:13:02;;;;;;;6.60;2.93;;;7.50;99.90;;;7.92;78.74;97872.00;2363738;56;26107;-77
2024/04/13 04:15:29;;;;;;;6.93;2.97;;;7.70;99.90;;;7.99;81.83;97871.00;2363946;56;26124;-76
2024/04/13 04:17:56;;;;;;;6.13;3.20;;;7.90;99.90;;;8.28;83.30;97883.00;2363514;56;26474;-75
2024/04/13 04:20:22;;;;;;;6.17;2.83;;;8.10;99.90;;;8.55;81.50;97882.00;2363619;56;26550;-74
2024/04/13 04:22:50;;;;;;;4.73;2.70;;;8.00;99.90;;;8.47;78.95;97871.00;2361152;56;26792;-76
2024/04/13 04:25:20;;;;;;;5.60;2.80;;;7.90;99.90;;;8.38;78.30;97875.00;2360392;56;26224;-76
2024/04/13 04:27:46;;;;;;;6.93;2.90;;;7.80;99.90;;;8.25;78.21;97872.00;2362429;56;26522;-75
2024/04/13 04:30:13;;;;;;;7.07;3.03;;;7.90;99.90;;;8.39;78.88;97879.00;2362538;56;26896;-76
2024/04/13 04:32:40;;;;;;;11.80;3.80;;;8.10;99.90;;;8.59;80.92;97874.00;2363404;56;26627;-76
2024/04/13 04:35:07;;;;;;;7.50;3.10;;;8.40;99.90;;;8.85;82.10;97887.00;2363519;56;26093;-77
2024/04/13 04:37:34;;;;;;;6.57;3.37;;;8.50;99.90;;;8.99;79.08;97883.00;2363475;56;26073;-74
2024/04/13 04:40:02;;;;;;;4.77;2.73;;;8.30;99.90;;;8.79;76.69;97882.00;2363669;56;26896;-77
2024/04/13 04:42:28;;;;;;;6.20;3.03;;;8.30;99.90;;;8.62;77.41;97890.00;2363942;56;26184;-77
2024/04/13 04:44:55;;;;;;;9.63;4.17;;;8.60;99.90;;;9.09;82.05;97897.00;2364010;56;26617;-77
2024/04/13 04:47:22;;;;;;;7.33;3.67;;;9.20;99.90;;;9.72;85.50;97889.00;2363976;56;26534;-76
2024/04/13 04:49:49;;;;;;;5.57;3.00;;;9.40;99.90;;;9.77;78.84;97898.00;2360867;56;26132;-74
2024/04/13 04:52:17;;;;;;;6.73;3.30;;;9.00;99.90;;;9.51;76.23;97903.00;2360587;56;26184;-76
2024/04/13 04:54:46;;;;;;;6.50;3.53;;;8.80;99.90;;;9.33;76.79;97901.00;2360115;56;26488;-75
2024/04/13 04:57:13;;;;;;;5.97;3.00;;;8.80;99.90;;;9.27;77.46;97899.00;2360052;56;26239;-76
2024/04/13 04:59:39;;;;;;;4.97;2.87;;;8.70;99.90;;;9.23;77.70;97903.00;2360244;56;26470;-75
2024/04/13 05:02:06;;;;;;;4.87;3.27;;;8.80;99.90;;;9.25;78.13;97909.00;2360156;56;26766;-76
2024/04/13 05:04:33;;;;;;;6.17;3.43;;;8.90;99.90;;;9.43;79.70;97908.00;2360247;56;26227;-75
2024/04/13 05:06:59;;;;;;;9.23;3.40;;;9.10;99.90;;;9.75;79.41;97910.00;2359883;56;26117;-75
2024/04/13 05:09:26;;;;;;;7.17;3.43;;;9.30;99.90;;;9.97;80.46;97913.00;2360336;56;26248;-75
2024/04/13 05:11:52;;;;;;;5.67;3.30;;;9.50;99.90;;;10.17;81.07;97916.00;2360331;56;26730;-76
2024/04/13 05:14:19;;;;;;;7.47;3.47;;;9.70;99.90;;;10.34;79.92;97922.00;2360449;56;26675;-74
2024/04/13 05:16:46;;;;;;;4.13;2.87;;;9.80;99.90;;;10.47;79.48;97919.00;2360416;56;26216;-77
2024/04/13 05:19:13;;;;;;;7.57;3.40;;;10.00;99.90;;;10.75;76.70;97911.00;2360351;56;26213;-77
2024/04/13 05:21:40;;;;;;;6.57;3.20;;;10.00;99.90;;;10.62;76.47;97917.00;2363064;56;27218;-75
2024/04/13 05:24:07;;;;;;;5.97;3.13;;;10.10;99.90;;;10.76;77.63;97918.00;2360088;56;26191;-78
2024/04/13 05:26:34;;;;;;;6.07;3.33;;;10.20;99.90;;;10.85;76.60;97922.00;2360224;56;26113;-75
2024/04/13 05:29:03;;;;;;;7.17;3.30;;;10.20;99.90;;;10.80;76.68;97922.00;2360607;56;26644;-77
2024/04/13 05:31:29;;;;;;;6.07;3.40;;;10.30;99.90;;;10.88;76.98;97930.00;2360166;56;26176;-77
2024/04/13 05:33:56;;;;;;;5.33;3.43;;;10.40;99.90;;;11.05;77.75;97920.00;2360461;56;26555;-75
2024/04/13 05:36:23;;;;;;;7.40;3.83;;;10.90;99.90;;;11.69;77.51;97929.00;2360289;56;26105;-77
2024/04/13 05:38:50;;;;;;;7.43;4.00;;;11.20;99.90;;;11.82;77.39;97924.00;2360417;56;26657;-76
2024/04/13 05:41:16;;;;;;;5.80;3.27;;;11.30;99.90;;;12.05;76.27;97926.00;2360627;56;26114;-77
2024/04/13 05:43:43;;;;;;;7.17;3.27;;;11.30;99.90;;;12.07;74.93;97924.00;2360398;56;26191;-77
2024/04/13 05:46:09;;;;;;;6.03;3.17;;;11.30;99.90;;;11.84;74.75;97929.00;2359991;56;27212;-76
2024/04/13 05:48:36;;;;;;;5.63;3.40;;;11.20;99.90;;;11.87;75.16;97937.00;2359949;56;26529;-76
2024/04/13 05:51:04;;;;;;;5.83;3.10;;;11.30;99.90;;;11.95;75.02;97939.00;2359967;56;26153;-77
2024/04/13 05:53:31;;;;;;;5.53;3.13;;;11.40;99.90;;;12.00;75.05;97933.00;2360060;56;26213;-77
2024/04/13 05:56:08;;;;;;;5.13;3.30;;;11.50;99.90;;;12.26;75.05;97936.00;2359933;56;26979;-76
2024/04/13 05:58:35;;;;;;;6.77;3.47;;;11.70;99.90;;;12.53;75.13;97937.00;2360130;56;26414;-78
2024/04/13 06:01:03;;;;;;;9.77;3.83;;;11.90;99.90;;;12.74;74.71;97941.00;2359888;56;26704;-75
2024/04/13 06:03:33;;;;;;;7.00;3.70;;;12.10;99.90;;;13.02;74.50;97943.00;2360049;56;26223;-75
2024/04/13 06:06:00;;;;;;;8.10;4.00;;;12.30;99.90;;;13.20;74.70;97937.00;2360033;56;26173;-75
2024/04/13 06:08:26;;;;;;;7.90;3.80;;;12.40;99.90;;;13.16;75.20;97941.00;2360150;56;26275;-76
2024/04/13 06:10:53;;;;;;;8.70;4.10;;;12.50;99.90;;;13.39;74.67;97937.00;2360046;56;26260;-78
2024/04/13 06:13:20;;;;;;;7.80;4.30;;;12.70;99.90;;;13.47;74.13;97941.00;2359946;56;26204;-77
2024/04/13 06:15:46;;;;;;;6.40;3.53;;;12.80;99.90;;;13.57;73.74;97943.00;2360196;56;26160;-78
2024/04/13 06:18:13;;;;;;;7.83;4.13;;;12.90;99.90;;;13.78;73.17;97945.00;2360136;56;26617;-76
2024/04/13 06:20:39;;;;;;;7.40;4.13;;;13.30;99.90;;;14.18;72.01;97950.00;2360003;56;26182;-77
2024/04/13 06:23:06;;;;;;;10.70;4.20;;;13.40;99.90;;;14.32;72.46;97946.00;2359974;56;26137;-75
2024/04/13 06:25:32;;;;;;;6.57;3.62;;;13.70;99.90;;;14.67;70.68;97946.00;2360029;56;26121;-76
2024/04/13 06:27:59;;;;;;;6.87;3.93;;;13.90;99.90;;;14.83;71.21;97947.00;2360023;56;26161;-78
2024/04/13 06:30:26;;;;;;;9.75;3.58;;;14.10;99.90;;;15.13;70.05;97944.00;2360154;56;26236;-75
2024/04/13 06:32:53;;;;;;;8.05;3.87;;;14.50;99.90;;;15.54;68.66;97940.00;2360162;56;26141;-75
2024/04/13 06:35:20;;;;;;;8.05;4.15;;;14.80;99.90;;;15.87;68.54;97935.00;2360001;56;26475;-77
2024/04/13 06:37:47;;;;;;;6.47;4.22;;;15.10;99.90;;;16.11;68.22;97938.00;2359936;56;26204;-77
2024/04/13 06:40:13;;;;;;;7.28;4.20;;;15.40;99.90;;;16.45;66.75;97933.00;2359895;56;26200;-76
2024/04/13 06:42:40;;;;;;;6.32;3.65;;;15.60;99.90;;;16.72;66.22;97931.00;2360164;56;26144;-76
2024/04/13 06:45:07;;;;;;;9.80;4.05;;;15.90;99.90;;;16.99;65.24;97931.00;2360121;56;27126;-78
2024/04/13 06:47:33;;;;;;;7.20;4.07;;;16.10;99.90;;;17.16;64.60;97929.00;2360249;56;26116;-78
2024/04/13 06:50:02;;;;;;;7.70;4.07;;;16.30;99.90;;;17.49;63.94;97943.00;2360267;56;27208;-76
2024/04/13 06:52:29;;;;;;;7.75;3.67;;;16.40;99.90;;;17.54;63.55;97930.00;2360063;56;26208;-76
2024/04/13 06:54:55;;;;;;;4.70;3.28;;;16.50;99.90;;;17.69;62.69;97937.00;2359956;56;26577;-77
2024/04/13 06:57:22;;;;;;;6.50;3.47;;;16.60;99.90;;;17.73;61.51;97933.00;2360028;56;26657;-76
2024/04/13 06:59:49;;;;;;;5.12;3.53;;;16.80;99.90;;;18.03;60.31;97933.00;2359971;56;26137;-78
2024/04/13 07:02:16;;;;;;;5.53;3.95;;;17.00;99.90;;;18.24;58.99;97935.00;2362513;56;26141;-78
2024/04/13 07:04:43;;;;;;;7.37;3.75;;;17.10;99.90;;;18.30;61.10;97922.00;2360352;56;26163;-77
2024/04/13 07:07:10;;;;;;;5.50;3.33;;;17.20;99.90;;;18.45;60.65;97925.00;2360209;56;26148;-78
2024/04/13 07:09:37;;;;;;;5.72;3.92;;;17.30;99.90;;;18.70;59.95;97924.00;2360341;56;26200;-76
2024/04/13 07:12:04;;;;;;;10.93;3.78;;;17.70;99.90;;;19.31;57.60;97924.00;2360623;56;26419;-76
2024/04/13 07:14:34;;;;;;;5.20;3.62;;;18.00;99.90;;;19.41;57.03;97929.00;2360426;56;26148;-76
2024/04/13 07:17:04;;;;;;;5.37;3.40;;;18.20;99.90;;;19.19;55.98;97923.00;2360205;56;26129;-77
2024/04/13 07:19:31;;;;;;;6.43;2.78;;;18.20;99.90;;;19.41;56.04;97922.00;2360424;56;26192;-78
2024/04/13 07:21:57;;;;;;;5.85;3.53;;;18.30;99.90;;;19.69;54.76;97913.00;2360483;56;26686;-77
2024/04/13 07:24:28;;;;;;;8.18;3.37;;;18.50;99.90;;;19.78;54.26;97912.00;2360309;56;27206;-77
2024/04/13 07:26:55;;;;;;;7.32;3.53;;;18.70;99.90;;;20.00;54.53;97907.00;2363644;56;26061;-79
2024/04/13 07:29:22;;;;;;;8.95;3.90;;;18.80;99.90;;;20.12;54.76;97902.00;2363717;56;26113;-76
2024/04/13 07:31:48;;;;;;;5.85;3.85;;;19.10;99.90;;;20.43;54.91;97911.00;2363044;56;26149;-76
2024/04/13 07:34:15;;;;;;;6.45;3.60;;;19.30;99.90;;;20.56;54.27;97904.00;2361263;56;26141;-77
2024/04/13 07:36:41;;;;;;;5.20;3.37;;;19.40;99.90;;;20.59;54.62;97906.00;2360170;56;26129;-77
2024/04/13 07:39:08;;;;;;;4.40;3.42;;;19.50;99.90;;;20.74;55.24;97902.00;2360261;56;26153;-78
2024/04/13 07:41:35;;;;;;;10.82;4.00;;;19.70;99.80;;;21.07;53.83;97904.00;2360096;56;26152;-77
2024/04/13 07:44:01;;;;;;;11.40;3.50;;;19.90;99.10;;;21.33;52.55;97900.00;2360157;56;26089;-77
2024/04/13 07:46:28;;;;;;;7.57;3.08;;;20.10;97.00;;;21.39;49.42;97907.00;2360321;56;26164;-79
2024/04/13 07:48:54;;;;;;;5.53;3.00;;;20.10;96.60;;;21.39;49.03;97900.00;2360619;56;26740;-77
2024/04/13 07:51:21;;;;;;;3.10;2.55;;;20.20;95.70;;;21.51;47.69;97908.00;2360230;56;26145;-79
2024/04/13 07:53:48;;;;;;;4.10;2.30;;;20.30;95.80;;;21.65;47.85;97900.00;2360395;56;26323;-75
2024/04/13 07:56:15;;;;;;;5.43;2.67;;;20.40;94.90;;;21.63;46.36;97894.00;2360487;56;26185;-75
2024/04/13 07:58:42;;;;;;;6.40;2.90;;;20.50;94.60;;;21.84;46.17;97895.00;2360461;56;26749;-76
2024/04/13 08:01:08;;;;;;;6.45;2.85;;;20.70;94.40;;;22.08;45.90;97891.00;2360984;56;26704;-79
2024/04/13 08:03:36;;;;;;;6.62;2.03;;;20.90;93.20;;;22.24;43.93;97885.00;2360501;56;26610;-76
2024/04/13 08:06:03;;;;;;;3.08;2.50;;;21.00;93.50;;;22.41;44.73;97885.00;2360290;56;26597;-78
2024/04/13 08:08:29;;;;;;;6.82;3.22;;;21.20;93.30;;;22.55;44.24;97878.00;2360081;56;27353;-78
2024/04/13 08:10:56;;;;;;;6.47;2.58;;;21.30;93.30;;;22.62;44.54;97878.00;2360161;56;26114;-78
2024/04/13 08:13:23;;;;;;;4.20;2.72;;;21.40;93.50;;;22.81;44.85;97870.00;2360240;56;26224;-78
2024/04/13 08:15:49;;;;;;;3.78;2.62;;;21.50;93.50;;;22.90;44.82;97868.00;2360349;56;26388;-78
2024/04/13 08:18:16;;;;;;;7.80;2.62;;;21.70;93.20;;;23.08;44.35;97865.00;2360507;56;26256;-76
2024/04/13 08:20:43;;;;;;;3.80;2.15;;;21.80;91.80;;;23.16;42.41;97863.00;2360183;56;27317;-76
2024/04/13 08:23:10;;;;;;;2.90;2.45;;;21.80;92.20;;;23.14;43.15;97855.00;2360275;56;26120;-77
2024/04/13 08:25:36;;;;;;;5.90;2.15;;;21.80;91.50;;;23.12;42.31;97862.00;2360078;56;26750;-77
2024/04/13 08:28:03;;;;;;;5.90;2.53;;;22.00;91.10;;;23.44;41.54;97859.00;2360427;56;26136;-79
2024/04/13 08:30:30;;;;;;;4.85;2.62;;;22.10;91.60;;;23.49;42.35;97865.00;2360256;56;27345;-76
2024/04/13 08:32:56;;;;;;;4.53;2.70;;;22.20;91.80;;;23.62;42.88;97855.00;2359771;56;26119;-76
2024/04/13 08:35:26;;;;;;;4.68;2.60;;;22.30;91.50;;;23.80;42.25;97851.00;2359279;56;26216;-77
2024/04/13 08:37:53;;;;;;;3.97;2.50;;;22.50;91.30;;;23.84;41.98;97844.00;2359116;56;27198;-77
2024/04/13 08:40:19;;;;;;;3.95;2.37;;;22.70;90.90;;;24.20;41.27;97846.00;2359752;56;27225;-78
2024/04/13 08:42:52;;;;;;;9.02;2.45;;;22.80;89.70;;;24.27;39.31;97842.00;2360043;56;26901;-77
2024/04/13 08:45:21;;;;;;;6.62;2.17;;;22.80;87.40;;;24.34;38.25;97842.00;2360030;56;26117;-77
2024/04/13 08:47:49;;;;;;;2.97;2.10;;;23.00;84.90;;;24.54;36.84;97851.00;2359895;56;26272;-78
2024/04/13 08:50:16;;;;;;;3.47;1.67;;;23.20;81.10;;;24.72;34.64;97842.00;2359566;56;26133;-77
2024/04/13 08:52:45;;;;;;;4.37;1.92;;;23.30;76.70;;;24.90;31.87;97837.00;2360057;56;26179;-77
2024/04/13 08:55:12;;;;;;;2.55;1.83;;;23.40;76.70;;;24.92;32.51;97839.00;2360016;56;26216;-76
2024/04/13 08:57:41;;;;;;;4.00;1.85;;;23.50;76.00;;;25.00;32.26;97848.00;2360212;56;26121;-78
2024/04/13 09:00:14;;;;;;;2.72;2.00;;;23.40;79.70;;;24.87;34.74;97847.00;2360494;56;26136;-77
2024/04/13 09:02:44;;;;;;;4.50;2.10;;;23.50;77.80;;;25.12;33.45;97843.00;2360515;56;26145;-78
2024/04/13 09:05:12;;;;;;;3.90;2.08;;;23.80;80.10;;;25.41;34.45;97842.00;2360648;56;26196;-76
2024/04/13 09:07:40;;;;;;;3.30;2.40;;;23.90;81.40;;;25.36;35.88;97843.00;2360551;56;27205;-76
2024/04/13 09:10:10;;;;;;;5.37;2.33;;;24.00;79.70;;;25.54;34.65;97841.00;2360507;56;26221;-78
2024/04/13 09:12:37;;;;;;;6.32;2.67;;;24.00;80.50;;;25.52;35.30;97843.00;2360394;56;26088;-76
2024/04/13 09:15:05;;;;;;;3.25;2.08;;;24.10;77.20;;;25.64;33.31;97832.00;2361610;56;26479;-76
2024/04/13 09:17:31;;;;;;;2.53;1.90;;;24.10;77.20;;;25.65;33.41;97822.00;2360591;56;26636;-76
2024/04/13 09:20:09;;;;;;;4.03;2.00;;;24.20;77.80;;;25.72;33.82;97832.00;2360749;56;26129;-77
2024/04/13 09:22:38;;;;;;;4.35;2.25;;;24.10;77.40;;;25.72;33.65;97832.00;2360617;56;26113;-77
2024/04/13 09:25:07;;;;;;;4.25;2.60;;;24.30;73.10;;;25.86;30.75;97833.00;2360958;56;26144;-77
2024/04/13 09:27:34;;;;;;;2.90;2.12;;;24.20;76.70;;;25.75;33.43;97826.00;2360686;56;26749;-78
2024/04/13 09:30:13;;;;;;;2.85;2.10;;;24.20;75.20;;;25.72;32.61;97821.00;2360698;56;26212;-78
2024/04/13 09:32:40;;;;;;;3.10;2.17;;;24.10;76.40;;;25.66;33.37;97819.00;2360668;56;26176;-75
2024/04/13 09:35:12;;;;;;;4.87;2.28;;;24.20;76.00;;;25.77;33.08;97815.00;2360612;56;26593;-75
2024/04/13 09:37:39;;;;;;;3.75;2.00;;;24.20;72.80;;;25.84;31.13;97826.00;2360731;56;26233;-77
2024/04/13 09:40:10;;;;;;;3.30;1.58;;;24.10;70.70;;;25.49;30.34;97820.00;2360812;56;27175;-77
2024/04/13 09:42:37;;;;;;;2.10;1.40;;;24.10;69.90;;;25.63;29.93;97815.00;2360623;56;26684;-78
2024/04/13 09:45:11;;;;;;;3.55;1.50;;;24.20;69.30;;;25.80;29.61;97809.00;2360778;56;26176;-76
2024/04/13 09:47:38;;;;;;;2.33;1.60;;;24.20;66.60;;;25.75;28.31;97807.00;2360540;56;26181;-77
2024/04/13 09:50:06;;;;;;;3.85;2.37;;;24.30;67.30;;;25.85;28.78;97808.00;2360988;56;26133;-77
2024/04/13 09:52:33;;;;;;;5.53;1.40;;;24.40;65.50;;;26.08;27.76;97809.00;2361680;56;26158;-78
2024/04/13 09:55:01;;;;;;;3.30;1.70;;;24.50;66.50;;;25.94;28.62;97809.00;2361125;56;26684;-77
2024/04/13 09:57:28;;;;;;;2.55;1.60;;;24.60;67.80;;;26.20;29.05;97804.00;2360416;56;26773;-77
2024/04/13 09:59:56;;;;;;;2.95;1.65;;;24.60;68.80;;;26.08;29.96;97810.00;2360767;56;26195;-76
2024/04/13 10:02:23;;;;;;;2.87;1.50;;;24.50;66.70;;;26.05;28.86;97804.00;2360463;56;26211;-76
2024/04/13 10:04:49;;;;;;;5.10;1.62;;;24.60;66.50;;;26.28;28.48;97798.00;2360956;56;27234;-77
2024/04/13 10:07:17;;;;;;;3.25;1.87;;;24.60;69.00;;;26.20;30.00;97801.00;2360584;56;27264;-76
2024/04/13 10:09:50;;;;;;;2.62;1.77;;;24.60;66.60;;;26.23;28.64;97800.00;2360259;56;26129;-76
2024/04/13 10:12:26;;;;;;;2.40;1.42;;;24.80;66.10;;;26.51;28.14;97790.00;2610926;53;26466;-77
2024/04/13 10:14:56;;;;;;;3.33;1.50;;;24.70;67.20;;;26.18;29.24;97786.00;2360086;56;27294;-78
2024/04/13 10:17:23;;;;;;;2.15;1.67;;;24.50;67.60;;;25.88;29.85;97783.00;2360223;56;26346;-78
2024/04/13 10:19:50;;;;;;;3.37;2.17;;;24.70;67.10;;;26.14;29.41;97781.00;2363870;56;26125;-76
2024/04/13 10:22:19;;;;;;;3.42;1.67;;;24.80;64.40;;;26.43;27.80;97778.00;2359659;56;26124;-77
2024/04/13 10:25:08;;;;;;;2.90;1.50;;;24.90;65.50;;;26.41;28.48;97769.00;2359959;56;26746;-77
2024/04/13 10:27:37;;;;;;;2.35;1.48;;;25.00;63.40;;;26.56;27.09;97770.00;2360138;56;26248;-78